createdAt,value
2023-07-18T00:00:24.732Z,70.52
2023-07-18T00:02:53.456Z,69.93
2023-07-18T00:05:19.984Z,69.35
2023-07-18T00:07:47.426Z,68.36
2023-07-18T00:10:14.877Z,67.01
2023-07-18T00:12:41.372Z,67.54
2023-07-18T00:15:07.932Z,69.22
2023-07-18T00:17:34.491Z,70.48
2023-07-18T00:20:01.955Z,71.29
2023-07-18T00:22:29.405Z,70.53
2023-07-18T00:24:56.849Z,70.33
2023-07-18T00:27:24.285Z,68.18
2023-07-18T00:29:51.688Z,69.44
2023-07-18T00:32:19.119Z,70.34
2023-07-18T00:34:46.500Z,68.37
2023-07-18T00:40:08.082Z,68.77
2023-07-18T00:42:34.602Z,70.99
2023-07-18T00:45:01.132Z,71.39
2023-07-18T00:47:27.690Z,71.46
2023-07-18T00:49:55.125Z,67.88
2023-07-18T00:55:05.472Z,66.20
2023-07-18T00:57:31.978Z,67.44
2023-07-18T00:59:58.878Z,67.46
2023-07-18T01:02:25.470Z,67.09
2023-07-18T01:04:52.877Z,66.20
2023-07-18T01:10:14.198Z,65.29
2023-07-18T01:12:40.694Z,65.31
2023-07-18T01:15:08.054Z,65.05
2023-07-18T01:17:34.590Z,64.71
2023-07-18T01:20:02.652Z,64.44
2023-07-18T01:25:15.072Z,64.23
2023-07-18T01:27:41.559Z,63.20
2023-07-18T01:30:08.063Z,62.93
2023-07-18T01:32:34.587Z,64.23
2023-07-18T01:35:03.872Z,64.85
2023-07-18T01:40:15.045Z,64.62
2023-07-18T01:42:41.582Z,63.08
2023-07-18T01:45:08.937Z,62.87
2023-07-18T01:47:36.282Z,63.98
2023-07-18T01:50:02.747Z,65.05
2023-07-18T01:55:14.247Z,62.96
2023-07-18T01:57:42.597Z,61.73
2023-07-18T02:00:09.106Z,62.61
2023-07-18T02:02:35.734Z,61.40
2023-07-18T02:05:02.273Z,62.41
2023-07-18T02:10:13.542Z,61.90
2023-07-18T02:12:39.944Z,62.13
2023-07-18T02:15:06.405Z,62.17
2023-07-18T02:17:32.829Z,61.64
2023-07-18T02:19:59.274Z,61.37
2023-07-18T02:25:09.568Z,61.44
2023-07-18T02:27:35.972Z,61.42
2023-07-18T02:30:02.419Z,61.87
2023-07-18T02:32:28.869Z,62.10
2023-07-18T02:34:55.288Z,61.73
2023-07-18T02:40:05.664Z,63.03
2023-07-18T02:42:32.084Z,64.09
2023-07-18T02:44:58.476Z,65.15
2023-07-18T02:47:24.941Z,66.36
2023-07-18T02:49:51.351Z,66.05
2023-07-18T02:55:02.655Z,67.04
2023-07-18T02:57:29.106Z,66.63
2023-07-18T02:59:55.520Z,66.39
2023-07-18T03:02:22.071Z,67.37
2023-07-18T03:04:48.651Z,66.34
2023-07-18T03:09:59.813Z,67.58
2023-07-18T03:12:26.242Z,66.85
2023-07-18T03:14:52.654Z,66.35
2023-07-18T03:17:19.105Z,66.96
2023-07-18T03:19:46.412Z,67.41
2023-07-18T03:22:13.722Z,67.69
2023-07-18T03:24:40.146Z,66.84
2023-07-18T03:27:06.573Z,67.39
2023-07-18T03:29:33.857Z,67.08
2023-07-18T03:32:00.380Z,67.24
2023-07-18T03:34:26.833Z,68.22
2023-07-18T03:36:53.273Z,68.95
2023-07-18T03:39:19.674Z,69.17
2023-07-18T03:41:46.099Z,68.99
2023-07-18T03:44:12.520Z,67.89
2023-07-18T03:46:38.986Z,66.50
2023-07-18T03:49:05.466Z,65.87
2023-07-18T03:51:37.172Z,66.27
2023-07-18T03:54:04.075Z,66.17
2023-07-18T03:56:30.878Z,67.35
2023-07-18T03:58:57.301Z,68.96
2023-07-18T04:01:23.738Z,68.90
2023-07-18T04:03:50.273Z,66.63
2023-07-18T04:06:17.614Z,65.88
2023-07-18T04:08:44.047Z,67.58
2023-07-18T04:11:10.464Z,67.80
2023-07-18T04:13:36.879Z,68.12
2023-07-18T04:16:03.351Z,67.09
2023-07-18T04:18:29.848Z,65.60
2023-07-18T04:20:56.298Z,67.40
2023-07-18T04:23:22.710Z,68.08
2023-07-18T04:25:49.114Z,67.90
2023-07-18T04:28:16.383Z,65.32
2023-07-18T04:30:43.652Z,63.94
2023-07-18T04:33:10.943Z,65.37
2023-07-18T04:35:37.328Z,62.29
2023-07-18T04:38:03.750Z,61.55
2023-07-18T04:43:15.005Z,60.99
2023-07-18T04:45:42.892Z,63.34
2023-07-18T04:48:10.228Z,61.11
2023-07-18T04:50:36.645Z,61.06
2023-07-18T04:53:03.104Z,61.50
2023-07-18T04:58:14.260Z,62.02
2023-07-18T05:00:42.527Z,62.45
2023-07-18T05:03:08.971Z,62.87
2023-07-18T05:05:36.266Z,60.24
2023-07-18T05:08:02.680Z,60.22
2023-07-18T05:13:13.716Z,61.11
2023-07-18T05:15:40.184Z,60.50
2023-07-18T05:18:06.717Z,60.57
2023-07-18T05:20:33.162Z,61.21
2023-07-18T05:22:59.872Z,62.19
2023-07-18T05:28:10.541Z,62.26
2023-07-18T05:30:37.837Z,61.82
2023-07-18T05:33:04.371Z,61.29
2023-07-18T05:35:31.697Z,60.13
2023-07-18T05:37:58.136Z,60.33
2023-07-18T05:43:09.495Z,61.07
2023-07-18T05:45:36.794Z,60.07
2023-07-18T05:48:03.313Z,58.91
2023-07-18T05:50:29.818Z,59.88
2023-07-18T05:52:57.096Z,59.52
2023-07-18T05:58:07.645Z,58.96
2023-07-18T06:00:34.074Z,58.20
2023-07-18T06:03:00.590Z,57.83
2023-07-18T06:05:27.068Z,58.02
2023-07-18T06:07:53.702Z,58.88
2023-07-18T06:13:04.528Z,59.01
2023-07-18T06:15:30.968Z,58.33
2023-07-18T06:17:57.438Z,58.49
2023-07-18T06:20:24.832Z,59.95
2023-07-18T06:22:51.291Z,58.60
2023-07-18T06:28:02.412Z,59.20
2023-07-18T06:30:29.855Z,58.48
2023-07-18T06:32:56.384Z,58.58
2023-07-18T06:35:24.031Z,60.53
2023-07-18T06:37:50.754Z,59.49
2023-07-18T06:43:01.895Z,58.14
2023-07-18T06:45:28.367Z,58.55
2023-07-18T06:47:54.839Z,58.60
2023-07-18T06:50:21.258Z,57.68
2023-07-18T06:52:47.679Z,57.44
2023-07-18T06:55:14.177Z,57.45
2023-07-18T06:57:44.783Z,58.19
2023-07-18T07:00:11.494Z,58.37
2023-07-18T07:02:37.891Z,57.45
2023-07-18T07:05:04.350Z,56.78
2023-07-18T07:07:30.796Z,56.69
2023-07-18T07:09:57.230Z,56.36
2023-07-18T07:12:35.497Z,56.33
2023-07-18T07:15:02.937Z,56.50
2023-07-18T07:17:29.403Z,55.52
2023-07-18T07:19:55.844Z,55.07
2023-07-18T07:22:22.263Z,54.51
2023-07-18T07:24:48.706Z,53.86
2023-07-18T07:27:16.042Z,53.44
2023-07-18T07:29:42.456Z,53.66
2023-07-18T07:32:08.859Z,52.72
2023-07-18T07:34:36.892Z,53.39
2023-07-18T07:37:04.205Z,52.73
2023-07-18T07:39:30.614Z,52.08
2023-07-18T07:41:57.036Z,52.12
2023-07-18T07:44:23.496Z,51.54
2023-07-18T07:46:50.026Z,51.91
2023-07-18T07:49:16.463Z,50.67
2023-07-18T07:51:42.870Z,50.52
2023-07-18T07:54:09.311Z,49.97
2023-07-18T07:56:35.732Z,49.63
2023-07-18T07:59:11.087Z,48.25
2023-07-18T08:01:38.366Z,48.60
2023-07-18T08:04:04.880Z,48.68
2023-07-18T08:06:31.318Z,48.40
2023-07-18T08:08:57.760Z,47.82
2023-07-18T08:16:58.237Z,47.48
2023-07-18T08:19:24.635Z,46.30
2023-07-18T08:21:51.035Z,46.27
2023-07-18T08:24:17.435Z,46.07
2023-07-18T08:26:43.868Z,46.47
2023-07-18T08:29:11.169Z,46.74
2023-07-18T08:31:37.703Z,46.57
2023-07-18T08:34:04.205Z,46.84
2023-07-18T08:36:30.630Z,47.46
2023-07-18T08:38:57.039Z,47.68
2023-07-18T08:41:23.566Z,47.30
2023-07-18T08:46:33.851Z,47.16
2023-07-18T08:49:00.294Z,47.07
2023-07-18T08:51:26.699Z,46.15
2023-07-18T08:53:53.082Z,45.10
2023-07-18T08:56:19.500Z,46.00
2023-07-18T09:01:29.772Z,44.76
2023-07-18T09:03:56.355Z,44.35
2023-07-18T09:06:22.907Z,44.70
2023-07-18T09:08:49.556Z,44.71
2023-07-18T09:11:15.970Z,44.03
2023-07-18T09:16:36.437Z,44.34
2023-07-18T09:19:02.846Z,44.08
2023-07-18T09:21:29.253Z,43.50
2023-07-18T09:23:55.646Z,43.78
2023-07-18T09:26:22.065Z,43.92
2023-07-18T09:31:32.490Z,43.59
2023-07-18T09:33:58.919Z,42.54
2023-07-18T09:36:25.313Z,42.64
2023-07-18T09:38:51.716Z,43.52
2023-07-18T09:41:18.632Z,43.79
2023-07-18T09:46:39.288Z,41.29
2023-07-18T09:49:05.704Z,42.35
2023-07-18T09:51:32.120Z,43.41
2023-07-18T09:53:58.519Z,43.43
2023-07-18T09:56:25.121Z,43.45
2023-07-18T10:01:35.587Z,43.22
2023-07-18T10:04:02.069Z,43.59
2023-07-18T10:06:28.525Z,43.53
2023-07-18T10:08:54.990Z,43.63
2023-07-18T10:11:21.759Z,44.08
2023-07-18T10:16:32.508Z,43.54
2023-07-18T10:18:58.953Z,43.69
2023-07-18T10:21:25.341Z,43.37
2023-07-18T10:23:51.764Z,42.70
2023-07-18T10:26:19.015Z,43.66
2023-07-18T10:31:29.149Z,44.00
2023-07-18T10:33:55.613Z,43.99
2023-07-18T10:36:22.024Z,43.79
2023-07-18T10:38:48.459Z,44.05
2023-07-18T10:41:15.748Z,43.54
2023-07-18T10:46:25.969Z,42.95
2023-07-18T10:48:52.506Z,43.86
2023-07-18T10:51:19.072Z,43.99
2023-07-18T10:53:45.886Z,43.35
2023-07-18T10:56:12.282Z,43.59
2023-07-18T10:58:38.712Z,43.56
2023-07-18T11:01:05.255Z,42.19
2023-07-18T11:03:31.738Z,43.39
2023-07-18T11:05:58.199Z,43.50
2023-07-18T11:08:24.605Z,42.74
2023-07-18T11:10:51.031Z,43.24
2023-07-18T11:13:17.466Z,43.58
2023-07-18T11:15:43.899Z,43.04
2023-07-18T11:18:10.349Z,43.45
2023-07-18T11:20:36.759Z,43.13
2023-07-18T11:23:03.201Z,42.78
2023-07-18T11:25:29.661Z,43.10
2023-07-18T11:27:56.087Z,42.59
2023-07-18T11:30:22.517Z,42.93
2023-07-18T11:32:49.141Z,42.62
2023-07-18T11:35:16.470Z,42.55
2023-07-18T11:37:43.735Z,41.88
2023-07-18T11:40:10.171Z,41.60
2023-07-18T11:42:36.610Z,40.47
2023-07-18T11:45:03.028Z,41.95
2023-07-18T11:47:29.592Z,41.27
2023-07-18T11:49:56.039Z,42.25
2023-07-18T11:52:22.430Z,41.87
2023-07-18T11:54:48.919Z,41.99
2023-07-18T11:57:15.373Z,41.14
2023-07-18T11:59:41.816Z,41.05
2023-07-18T12:02:08.399Z,41.48
2023-07-18T12:04:34.813Z,40.61
2023-07-18T12:07:01.284Z,41.15
2023-07-18T12:09:27.884Z,40.34
2023-07-18T12:11:54.312Z,40.64
2023-07-18T12:14:21.590Z,40.15
2023-07-18T12:19:31.979Z,38.80
2023-07-18T12:21:58.356Z,38.48
2023-07-18T12:24:24.816Z,39.23
2023-07-18T12:26:51.218Z,40.16
2023-07-18T12:29:17.631Z,40.23
2023-07-18T12:34:27.849Z,40.82
2023-07-18T12:36:57.048Z,40.54
2023-07-18T12:39:23.525Z,40.78
2023-07-18T12:41:49.953Z,40.10
2023-07-18T12:44:16.382Z,40.53
2023-07-18T12:51:55.977Z,40.69
2023-07-18T12:54:22.394Z,40.54
2023-07-18T12:56:48.815Z,40.64
2023-07-18T12:59:15.257Z,40.41
2023-07-18T13:04:28.244Z,39.32
2023-07-18T13:06:54.632Z,40.24
2023-07-18T13:09:21.065Z,40.32
2023-07-18T13:11:47.472Z,39.60
2023-07-18T13:14:13.893Z,40.03
2023-07-18T13:19:24.243Z,39.13
2023-07-18T13:21:50.658Z,39.56
2023-07-18T13:24:17.977Z,39.86
2023-07-18T13:26:44.424Z,39.38
2023-07-18T13:29:10.843Z,38.89
2023-07-18T13:34:21.332Z,39.54
2023-07-18T13:36:47.715Z,40.49
2023-07-18T13:39:14.351Z,40.28
2023-07-18T13:41:40.902Z,39.32
2023-07-18T13:44:07.320Z,39.73
2023-07-18T13:49:17.582Z,38.64
2023-07-18T13:51:43.961Z,39.01
2023-07-18T13:54:10.373Z,39.81
2023-07-18T13:56:36.818Z,38.79
2023-07-18T13:59:03.207Z,38.88
2023-07-18T14:04:13.520Z,39.20
2023-07-18T14:06:40.016Z,39.66
2023-07-18T14:09:06.419Z,39.24
2023-07-18T14:11:32.832Z,38.86
2023-07-18T14:14:02.099Z,37.92
2023-07-18T14:16:28.589Z,38.51
2023-07-18T14:18:55.055Z,38.70
2023-07-18T14:21:21.412Z,38.26
2023-07-18T14:23:47.794Z,37.95
2023-07-18T14:26:14.269Z,38.84
2023-07-18T14:28:40.687Z,38.73
2023-07-18T14:31:07.151Z,38.86
2023-07-18T14:33:33.562Z,38.44
2023-07-18T14:35:59.966Z,39.00
2023-07-18T14:38:26.332Z,38.61
2023-07-18T14:40:52.760Z,38.39
2023-07-18T14:43:21.966Z,38.78
2023-07-18T14:45:48.348Z,37.94
2023-07-18T14:48:15.641Z,37.09
2023-07-18T14:50:42.064Z,38.21
2023-07-18T14:53:08.448Z,38.41
2023-07-18T14:55:35.408Z,37.90
2023-07-18T14:58:02.179Z,38.63
2023-07-18T15:00:28.627Z,37.50
2023-07-18T15:02:55.048Z,37.58
2023-07-18T15:05:21.461Z,38.55
2023-07-18T15:07:47.915Z,37.48
2023-07-18T15:10:14.366Z,36.35
2023-07-18T15:12:40.845Z,37.53
2023-07-18T15:15:07.308Z,37.51
2023-07-18T15:17:33.836Z,37.67
2023-07-18T15:20:00.302Z,37.40
2023-07-18T15:22:26.858Z,37.50
2023-07-18T15:24:53.463Z,37.62
2023-07-18T15:27:19.959Z,37.05
2023-07-18T15:29:46.387Z,37.35
2023-07-18T15:32:13.760Z,37.27
2023-07-18T15:37:24.125Z,37.81
2023-07-18T15:39:50.618Z,37.56
2023-07-18T15:42:17.087Z,37.91
2023-07-18T15:44:43.674Z,37.01
2023-07-18T15:47:11.027Z,37.43
2023-07-18T15:52:21.293Z,37.39
2023-07-18T15:54:47.705Z,37.13
2023-07-18T15:57:14.111Z,37.36
2023-07-18T15:59:40.564Z,37.71
2023-07-18T16:02:07.056Z,37.91
2023-07-18T16:07:17.883Z,38.07
2023-07-18T16:09:44.343Z,38.16
2023-07-18T16:12:10.783Z,38.92
2023-07-18T16:14:37.187Z,38.34
2023-07-18T16:17:03.642Z,37.98
2023-07-18T16:22:14.000Z,37.45
2023-07-18T16:24:40.415Z,37.13
2023-07-18T16:27:06.809Z,37.08
2023-07-18T16:29:33.263Z,36.99
2023-07-18T16:31:59.728Z,37.14
2023-07-18T16:37:09.864Z,36.69
2023-07-18T16:39:36.269Z,37.08
2023-07-18T16:42:13.511Z,36.74
2023-07-18T16:44:48.615Z,36.91
2023-07-18T16:47:15.955Z,37.46
2023-07-18T16:52:26.082Z,37.53
2023-07-18T16:54:52.488Z,37.33
2023-07-18T16:57:18.929Z,36.37
2023-07-18T16:59:45.293Z,36.35
2023-07-18T17:02:11.700Z,36.07
2023-07-18T17:07:22.295Z,35.99
2023-07-18T17:09:48.691Z,36.43
2023-07-18T17:12:15.117Z,36.86
2023-07-18T17:14:41.492Z,37.30
2023-07-18T17:17:07.898Z,37.08
2023-07-18T17:22:19.403Z,36.64
2023-07-18T17:24:45.886Z,37.00
2023-07-18T17:27:13.240Z,36.29
2023-07-18T17:29:39.648Z,36.49
2023-07-18T17:32:06.087Z,36.57
2023-07-18T17:37:17.280Z,37.17
2023-07-18T17:39:43.717Z,37.11
2023-07-18T17:42:10.999Z,37.25
2023-07-18T17:44:37.380Z,37.25
2023-07-18T17:47:04.074Z,37.47
2023-07-18T17:52:14.538Z,37.33
2023-07-18T17:54:40.968Z,37.60
2023-07-18T17:57:07.445Z,37.55
2023-07-18T17:59:33.878Z,37.29
2023-07-18T18:02:00.320Z,36.97
2023-07-18T18:04:26.745Z,37.13
2023-07-18T18:06:53.155Z,37.06
2023-07-18T18:09:20.478Z,37.05
2023-07-18T18:11:46.906Z,38.07
2023-07-18T18:14:13.362Z,37.61
2023-07-18T18:16:39.791Z,37.86
2023-07-18T18:19:06.196Z,38.27
2023-07-18T18:21:32.570Z,38.84
2023-07-18T18:23:58.960Z,38.78
2023-07-18T18:26:25.381Z,38.67
2023-07-18T18:28:51.800Z,38.70
2023-07-18T18:31:19.427Z,38.84
2023-07-18T18:33:46.189Z,39.12
2023-07-18T18:36:13.491Z,39.77
2023-07-18T18:38:39.918Z,39.64
2023-07-18T18:41:06.336Z,39.38
2023-07-18T18:43:32.744Z,39.97
2023-07-18T18:45:59.182Z,39.46
2023-07-18T18:48:25.595Z,39.94
2023-07-18T18:50:52.022Z,40.17
2023-07-18T18:53:18.418Z,40.18
2023-07-18T18:55:44.807Z,40.96
2023-07-18T18:58:13.979Z,40.46
2023-07-18T19:00:40.818Z,40.91
2023-07-18T19:03:07.254Z,40.82
2023-07-18T19:05:33.713Z,41.23
2023-07-18T19:10:56.433Z,41.45
2023-07-18T19:13:30.588Z,40.89
2023-07-18T19:15:56.982Z,40.85
2023-07-18T19:18:23.436Z,40.97
2023-07-18T19:20:49.891Z,41.34
2023-07-18T19:26:00.175Z,40.59
2023-07-18T19:28:27.186Z,41.45
2023-07-18T19:30:53.636Z,41.70
2023-07-18T19:33:20.928Z,41.65
2023-07-18T19:35:47.346Z,42.33
2023-07-18T19:41:07.513Z,42.59
2023-07-18T19:43:33.960Z,42.05
2023-07-18T19:46:00.439Z,42.26
2023-07-18T19:48:26.944Z,42.50
2023-07-18T19:50:53.430Z,42.59
2023-07-18T19:56:04.899Z,42.78
2023-07-18T19:58:32.183Z,42.96
2023-07-18T20:00:59.525Z,43.20
2023-07-18T20:03:26.079Z,43.40
2023-07-18T20:05:53.540Z,43.34
2023-07-18T20:11:15.218Z,43.39
2023-07-18T20:13:42.516Z,43.50
2023-07-18T20:16:09.012Z,42.92
2023-07-18T20:18:35.468Z,43.20
2023-07-18T20:21:01.894Z,43.26
2023-07-18T20:26:13.080Z,43.42
2023-07-18T20:28:39.513Z,43.28
2023-07-18T20:31:08.797Z,43.63
2023-07-18T20:33:36.136Z,43.47
2023-07-18T20:36:03.478Z,43.29
2023-07-18T20:41:13.674Z,42.95
2023-07-18T20:43:40.126Z,43.21
2023-07-18T20:46:06.590Z,42.96
2023-07-18T20:48:33.008Z,43.10
2023-07-18T20:50:59.416Z,43.55
2023-07-18T20:56:13.559Z,43.76
2023-07-18T20:58:40.877Z,44.02
2023-07-18T21:01:07.376Z,43.47
2023-07-18T21:03:33.919Z,43.58
2023-07-18T21:06:00.465Z,43.99
2023-07-18T21:11:11.676Z,44.07
2023-07-18T21:13:38.305Z,45.16
2023-07-18T21:16:04.794Z,44.73
2023-07-18T21:18:31.261Z,44.74
2023-07-18T21:20:57.705Z,44.83
2023-07-18T21:26:08.138Z,45.73
2023-07-18T21:28:34.567Z,45.39
2023-07-18T21:31:01.114Z,45.25
2023-07-18T21:33:27.583Z,45.75
2023-07-18T21:35:53.993Z,45.87
2023-07-18T21:41:04.477Z,46.67
2023-07-18T21:43:31.070Z,46.45
2023-07-18T21:45:57.610Z,46.36
2023-07-18T21:48:24.077Z,46.70
2023-07-18T21:50:50.596Z,46.87
2023-07-18T21:53:18.068Z,46.86
2023-07-18T21:55:44.870Z,47.51
2023-07-18T21:58:11.472Z,47.60
2023-07-18T22:00:37.990Z,47.14
2023-07-18T22:03:04.624Z,46.89
2023-07-18T22:05:31.307Z,48.19
2023-07-18T22:07:57.824Z,47.61
2023-07-18T22:10:24.260Z,47.36
2023-07-18T22:12:50.671Z,46.77
2023-07-18T22:15:20.717Z,47.45
2023-07-18T22:17:48.217Z,47.52
2023-07-18T22:20:15.575Z,47.75
2023-07-18T22:22:42.051Z,47.97
2023-07-18T22:25:08.541Z,48.43
2023-07-18T22:27:34.948Z,49.38
2023-07-18T22:30:01.371Z,48.45
2023-07-18T22:32:28.975Z,48.59
2023-07-18T22:34:56.471Z,49.11
2023-07-18T22:37:22.868Z,48.94
2023-07-18T22:39:49.607Z,48.63
2023-07-18T22:42:16.975Z,48.69
2023-07-18T22:44:43.410Z,48.18
2023-07-18T22:47:10.690Z,47.78
2023-07-18T22:49:38.038Z,48.05
2023-07-18T22:52:04.474Z,48.34
2023-07-18T22:54:30.910Z,48.12
2023-07-18T22:56:57.318Z,47.27
2023-07-18T22:59:23.725Z,47.67
2023-07-18T23:01:50.145Z,47.96
2023-07-18T23:04:16.587Z,49.12
2023-07-18T23:06:43.874Z,48.17
2023-07-18T23:09:11.158Z,48.00
2023-07-18T23:14:21.624Z,49.10
2023-07-18T23:16:48.093Z,49.32
2023-07-18T23:19:15.469Z,49.55
2023-07-18T23:21:41.893Z,50.83
2023-07-18T23:24:08.295Z,50.49
2023-07-18T23:29:19.513Z,51.21
2023-07-18T23:31:45.919Z,50.64
2023-07-18T23:34:13.217Z,51.30
2023-07-18T23:36:39.650Z,51.46
2023-07-18T23:39:06.091Z,51.15
2023-07-18T23:44:16.325Z,51.27
2023-07-18T23:46:42.901Z,51.16
2023-07-18T23:49:09.440Z,50.77
2023-07-18T23:51:35.978Z,49.57
2023-07-18T23:54:02.382Z,49.06
2023-07-18T23:59:13.366Z,49.65
